Time;durP1;ratioP1;P1;durP2;ratioP2;P2;SDS_P1;SDS_P2;PMS_P1;PMS_P2;Temp;Humidity;BMP_temperature;BMP_pressure;BME280_temperature;BME280_humidity;BME280_pressure;Samples;Min_cycle;Max_cycle;Signal;HPM_P1;HPM_P2
2021/03/21 00:00:47;;;;;;;22.10;14.40;;;;;;;;;;5033262;28;20025;-66
2021/03/21 00:03:14;;;;;;;20.95;13.85;;;;;;;;;;4972719;28;20061;-63
2021/03/21 00:05:40;;;;;;;23.95;15.65;;;;;;;;;;4971796;28;20023;-64
2021/03/21 00:08:12;;;;;;;27.98;14.88;;;;;;;;;;4974235;28;20680;-58
2021/03/21 00:10:38;;;;;;;25.27;13.98;;;;;;;;;;4972798;28;20047;-60
2021/03/21 00:13:04;;;;;;;22.58;14.00;;;;;;;;;;4973967;28;20066;-60
2021/03/21 00:15:31;;;;;;;21.42;13.80;;;;;;;;;;4974564;28;20426;-58
2021/03/21 00:17:58;;;;;;;23.25;14.20;;;;;;;;;;4972877;28;20097;-59
2021/03/21 00:20:27;;;;;;;21.80;13.38;;;;;;;;;;4972443;28;20086;-59
2021/03/21 00:22:53;;;;;;;20.23;14.55;;;;;;;;;;4972801;28;20015;-63
2021/03/21 00:25:20;;;;;;;23.45;14.10;;;;;;;;;;4972275;28;20041;-61
2021/03/21 00:27:46;;;;;;;23.02;14.73;;;;;;;;;;4971940;28;20061;-61
2021/03/21 00:30:15;;;;;;;20.45;13.75;;;;;;;;;;4972056;28;20054;-61
2021/03/21 00:32:41;;;;;;;21.60;14.35;;;;;;;;;;4972037;28;20071;-61
2021/03/21 00:35:07;;;;;;;23.75;15.15;;;;;;;;;;4971791;28;20038;-61
2021/03/21 00:37:34;;;;;;;24.83;14.95;;;;;;;;;;4974749;28;20505;-62
2021/03/21 00:40:00;;;;;;;25.02;14.90;;;;;;;;;;5013035;28;20496;-61
2021/03/21 00:42:26;;;;;;;22.65;14.13;;;;;;;;;;5033231;28;20026;-61
2021/03/21 00:44:52;;;;;;;22.45;14.95;;;;;;;;;;5031209;28;20041;-60
2021/03/21 00:47:18;;;;;;;23.90;14.13;;;;;;;;;;5032346;28;20468;-62
2021/03/21 00:49:44;;;;;;;24.20;14.90;;;;;;;;;;5029452;28;20452;-61
2021/03/21 00:52:10;;;;;;;20.65;14.50;;;;;;;;;;5028374;28;20391;-60
2021/03/21 00:54:36;;;;;;;20.77;13.85;;;;;;;;;;5029990;28;20025;-61
2021/03/21 00:57:02;;;;;;;22.50;13.52;;;;;;;;;;5031795;28;20030;-61
2021/03/21 00:59:28;;;;;;;23.02;14.05;;;;;;;;;;5032222;28;20075;-62
2021/03/21 01:01:54;;;;;;;22.10;14.40;;;;;;;;;;5032273;28;20036;-61
2021/03/21 01:04:20;;;;;;;18.27;13.45;;;;;;;;;;5032769;28;20526;-61
2021/03/21 01:06:46;;;;;;;21.27;13.90;;;;;;;;;;5032423;28;20480;-61
2021/03/21 01:09:13;;;;;;;21.48;13.73;;;;;;;;;;5030559;28;20502;-61
2021/03/21 01:11:40;;;;;;;23.65;15.30;;;;;;;;;;5032561;28;20053;-61
2021/03/21 01:14:07;;;;;;;22.92;14.95;;;;;;;;;;5031527;28;20032;-61
2021/03/21 01:16:34;;;;;;;23.13;14.02;;;;;;;;;;5032738;28;20025;-61
2021/03/21 01:19:00;;;;;;;22.95;13.93;;;;;;;;;;5030991;28;20472;-60
2021/03/21 01:21:30;;;;;;;24.60;15.13;;;;;;;;;;5032481;28;20404;-61
2021/03/21 01:23:56;;;;;;;21.52;14.65;;;;;;;;;;5032884;28;20241;-63
2021/03/21 01:26:24;;;;;;;25.70;16.08;;;;;;;;;;5033117;28;20027;-62
2021/03/21 01:28:51;;;;;;;22.97;14.23;;;;;;;;;;5032955;28;20136;-62
2021/03/21 01:31:18;;;;;;;23.42;14.25;;;;;;;;;;5031392;28;20080;-63
2021/03/21 01:33:45;;;;;;;26.35;16.60;;;;;;;;;;5032306;28;20364;-65
2021/03/21 01:36:30;;;;;;;27.92;15.55;;;;;;;;;;5032155;28;20017;-62
2021/03/21 01:38:57;;;;;;;23.80;15.48;;;;;;;;;;5032285;28;20029;-60
2021/03/21 01:41:25;;;;;;;24.33;15.02;;;;;;;;;;5031736;28;20037;-63
2021/03/21 01:43:51;;;;;;;23.35;14.35;;;;;;;;;;5022137;28;20025;-64
2021/03/21 01:46:23;;;;;;;22.48;15.10;;;;;;;;;;5032637;28;20052;-64
2021/03/21 01:48:55;;;;;;;24.88;14.93;;;;;;;;;;5032779;28;20038;-62
2021/03/21 01:51:31;;;;;;;21.02;14.18;;;;;;;;;;5032602;28;20025;-62
2021/03/21 01:53:59;;;;;;;22.60;14.98;;;;;;;;;;5033005;28;20052;-60
2021/03/21 01:56:27;;;;;;;22.80;14.40;;;;;;;;;;5032888;28;20034;-61
2021/03/21 01:58:57;;;;;;;24.42;15.23;;;;;;;;;;5032764;28;20030;-62
2021/03/21 02:01:29;;;;;;;18.83;13.43;;;;;;;;;;5032431;28;20457;-61
2021/03/21 02:03:57;;;;;;;26.73;16.13;;;;;;;;;;5032711;28;20029;-64
2021/03/21 02:06:33;;;;;;;30.08;17.50;;;;;;;;;;5033424;28;20021;-65
2021/03/21 02:08:59;;;;;;;31.13;17.45;;;;;;;;;;5033908;28;20036;-63
2021/03/21 02:11:25;;;;;;;30.38;17.20;;;;;;;;;;5033306;28;20050;-63
2021/03/21 02:14:05;;;;;;;31.90;17.83;;;;;;;;;;5033548;28;20100;-62
2021/03/21 02:16:42;;;;;;;28.67;17.10;;;;;;;;;;5032930;28;20523;-63
2021/03/21 02:19:18;;;;;;;28.55;17.05;;;;;;;;;;5033057;28;20053;-63
2021/03/21 02:21:46;;;;;;;32.75;18.45;;;;;;;;;;5035822;28;20025;-65
2021/03/21 02:24:24;;;;;;;37.20;20.10;;;;;;;;;;5036485;28;20467;-61
2021/03/21 02:26:56;;;;;;;34.13;20.10;;;;;;;;;;5035737;28;20120;-63
2021/03/21 02:29:31;;;;;;;32.45;19.10;;;;;;;;;;5035229;28;20120;-62
2021/03/21 02:32:03;;;;;;;30.30;17.85;;;;;;;;;;5035239;28;20026;-65
2021/03/21 02:34:46;;;;;;;29.88;18.88;;;;;;;;;;5035728;28;20374;-63
2021/03/21 02:37:26;;;;;;;34.25;19.58;;;;;;;;;;5035680;28;20028;-62
2021/03/21 02:39:59;;;;;;;29.63;17.63;;;;;;;;;;5035301;28;20168;-63
2021/03/21 02:42:30;;;;;;;30.40;18.38;;;;;;;;;;5035244;28;20025;-63
2021/03/21 02:45:00;;;;;;;29.65;17.35;;;;;;;;;;5035031;28;20024;-62
2021/03/21 02:47:28;;;;;;;28.48;17.63;;;;;;;;;;5035101;28;20034;-62
2021/03/21 02:49:56;;;;;;;29.08;18.00;;;;;;;;;;5034859;28;20033;-62
2021/03/21 02:52:22;;;;;;;26.88;17.40;;;;;;;;;;5034983;28;20033;-64
2021/03/21 02:54:52;;;;;;;26.98;16.90;;;;;;;;;;5034912;28;20100;-64
2021/03/21 02:57:22;;;;;;;25.95;15.65;;;;;;;;;;5021786;28;20483;-61
2021/03/21 02:59:50;;;;;;;26.08;16.67;;;;;;;;;;5034523;28;20029;-64
2021/03/21 03:02:23;;;;;;;27.20;16.05;;;;;;;;;;5034785;28;20044;-63
2021/03/21 03:04:55;;;;;;;28.35;16.83;;;;;;;;;;5034776;28;20033;-62
2021/03/21 03:07:21;;;;;;;25.48;16.40;;;;;;;;;;5033159;28;20392;-62
2021/03/21 03:09:52;;;;;;;23.27;13.75;;;;;;;;;;5034269;28;20085;-64
2021/03/21 03:12:21;;;;;;;25.65;14.98;;;;;;;;;;5034752;28;20038;-61
2021/03/21 03:14:47;;;;;;;;;;;;;;;;;;5034937;28;20096;-61
2021/03/21 03:17:22;;;;;;;23.48;15.38;;;;;;;;;;5034621;28;19905;-63
2021/03/21 03:20:03;;;;;;;23.35;15.57;;;;;;;;;;5034409;28;20423;-63
2021/03/21 03:22:41;;;;;;;24.20;16.15;;;;;;;;;;5034411;28;20076;-63
2021/03/21 03:25:07;;;;;;;22.02;14.25;;;;;;;;;;5034211;28;20045;-61
2021/03/21 03:27:40;;;;;;;24.83;15.55;;;;;;;;;;5034138;28;20044;-62
2021/03/21 03:30:15;;;;;;;23.60;15.23;;;;;;;;;;5034277;28;20025;-63
2021/03/21 03:32:41;;;;;;;22.70;15.20;;;;;;;;;;5034549;28;20033;-64
2021/03/21 03:35:09;;;;;;;23.55;14.57;;;;;;;;;;5034500;28;20116;-62
2021/03/21 03:37:35;;;;;;;22.65;13.98;;;;;;;;;;5034897;28;20025;-61
2021/03/21 03:40:02;;;;;;;22.92;15.10;;;;;;;;;;5034458;28;20175;-62
2021/03/21 03:42:34;;;;;;;21.20;14.32;;;;;;;;;;5034756;28;20047;-63
2021/03/21 03:45:10;;;;;;;23.15;14.55;;;;;;;;;;5033066;28;20379;-64
2021/03/21 03:47:48;;;;;;;22.63;14.98;;;;;;;;;;5034620;28;20033;-63
2021/03/21 03:50:37;;;;;;;23.25;15.00;;;;;;;;;;5034359;28;20025;-64
2021/03/21 03:53:07;;;;;;;24.13;15.23;;;;;;;;;;5023990;28;20039;-63
2021/03/21 03:55:54;;;;;;;23.73;15.85;;;;;;;;;;5034328;28;20044;-65
2021/03/21 03:58:25;;;;;;;24.30;15.20;;;;;;;;;;5034273;28;20064;-63
2021/03/21 04:00:57;;;;;;;24.25;15.10;;;;;;;;;;5034111;28;20472;-63
2021/03/21 04:03:26;;;;;;;23.98;14.55;;;;;;;;;;5032699;28;20057;-62
2021/03/21 04:05:55;;;;;;;24.73;15.38;;;;;;;;;;5033796;28;20436;-62
2021/03/21 04:08:21;;;;;;;;;;;;;;;;;;5034487;28;20034;-64
2021/03/21 04:10:54;;;;;;;29.15;16.13;;;;;;;;;;5033008;28;20346;-63
2021/03/21 04:13:31;;;;;;;30.63;17.80;;;;;;;;;;5033381;28;20029;-63
2021/03/21 04:15:58;;;;;;;26.08;16.52;;;;;;;;;;5032888;28;20053;-63
2021/03/21 04:18:24;;;;;;;24.13;15.77;;;;;;;;;;5033376;28;20033;-64
2021/03/21 04:20:56;;;;;;;25.05;15.30;;;;;;;;;;5033285;28;20025;-62
2021/03/21 04:23:31;;;;;;;27.67;16.27;;;;;;;;;;5033438;28;20029;-63
2021/03/21 04:26:01;;;;;;;25.77;15.52;;;;;;;;;;5018035;28;20033;-65
2021/03/21 04:28:33;;;;;;;26.30;16.80;;;;;;;;;;5033133;28;20041;-65
2021/03/21 04:31:01;;;;;;;25.17;16.20;;;;;;;;;;5032888;28;20528;-64
2021/03/21 04:33:31;;;;;;;24.83;16.48;;;;;;;;;;5033240;28;20034;-61
2021/03/21 04:35:59;;;;;;;77.10;35.72;;;;;;;;;;5032783;28;20021;-63
2021/03/21 04:38:37;;;;;;;142.73;68.93;;;;;;;;;;5033129;28;20034;-63
2021/03/21 04:41:06;;;;;;;39.30;26.42;;;;;;;;;;5033100;28;20770;-65
2021/03/21 04:43:34;;;;;;;41.85;30.27;;;;;;;;;;5032712;28;20022;-63
2021/03/21 04:46:02;;;;;;;61.83;42.58;;;;;;;;;;5032850;28;20025;-65
2021/03/21 04:48:28;;;;;;;77.80;55.42;;;;;;;;;;5033433;28;20041;-62
2021/03/21 04:51:02;;;;;;;57.10;46.45;;;;;;;;;;5033821;28;20021;-66
2021/03/21 04:53:28;;;;;;;41.70;37.05;;;;;;;;;;5033298;28;20051;-63
2021/03/21 04:55:58;;;;;;;36.25;21.55;;;;;;;;;;5033137;28;20033;-63
2021/03/21 04:58:27;;;;;;;54.40;29.27;;;;;;;;;;5031768;28;20400;-63
2021/03/21 05:00:57;;;;;;;183.27;96.30;;;;;;;;;;5033058;28;20064;-63
2021/03/21 05:03:28;;;;;;;170.85;101.82;;;;;;;;;;5033736;28;20034;-63
2021/03/21 05:05:58;;;;;;;82.43;49.10;;;;;;;;;;5032998;28;20026;-63
2021/03/21 05:08:27;;;;;;;43.15;30.50;;;;;;;;;;5033098;28;20068;-62
2021/03/21 05:10:56;;;;;;;52.42;38.13;;;;;;;;;;5032666;28;20060;-64
2021/03/21 05:13:23;;;;;;;120.43;72.88;;;;;;;;;;5033014;28;20021;-63
2021/03/21 05:15:59;;;;;;;77.00;43.72;;;;;;;;;;5029344;28;20029;-63
2021/03/21 05:18:30;;;;;;;41.90;25.95;;;;;;;;;;5019338;28;20500;-63
2021/03/21 05:21:08;;;;;;;144.60;81.78;;;;;;;;;;5032189;28;20025;-62
2021/03/21 05:23:34;;;;;;;42.92;28.90;;;;;;;;;;5032608;28;20072;-63
2021/03/21 05:26:02;;;;;;;39.47;26.23;;;;;;;;;;5032323;28;20111;-64
2021/03/21 05:28:46;;;;;;;29.13;20.58;;;;;;;;;;5030942;28;20069;-64
2021/03/21 05:31:13;;;;;;;28.45;17.95;;;;;;;;;;5031912;28;20051;-62
2021/03/21 05:33:39;;;;;;;27.02;16.83;;;;;;;;;;5032348;28;20026;-65
2021/03/21 05:36:31;;;;;;;31.58;22.15;;;;;;;;;;5032196;28;20379;-63
2021/03/21 05:39:03;;;;;;;36.92;22.30;;;;;;;;;;4971404;28;20039;-64
2021/03/21 05:41:50;;;;;;;34.38;23.58;;;;;;;;;;4971106;28;20027;-62
2021/03/21 05:44:16;;;;;;;45.60;32.90;;;;;;;;;;4971392;28;20066;-63
2021/03/21 05:46:42;;;;;;;47.05;31.60;;;;;;;;;;4971428;28;20109;-62
2021/03/21 05:49:16;;;;;;;29.08;19.88;;;;;;;;;;4971271;28;20043;-64
2021/03/21 05:51:53;;;;;;;30.60;18.98;;;;;;;;;;4955137;28;20026;-63
2021/03/21 05:54:38;;;;;;;30.33;20.05;;;;;;;;;;4971201;28;20034;-64
2021/03/21 05:57:09;;;;;;;30.98;20.15;;;;;;;;;;4974723;28;20142;-64
2021/03/21 05:59:54;;;;;;;29.52;20.20;;;;;;;;;;4974854;28;20062;-63
2021/03/21 06:02:31;;;;;;;29.42;20.63;;;;;;;;;;4962055;28;20043;-65
2021/03/21 06:05:16;;;;;;;33.17;19.67;;;;;;;;;;4974648;28;20042;-62
2021/03/21 06:07:53;;;;;;;31.40;20.10;;;;;;;;;;4975128;28;20051;-63
2021/03/21 06:10:28;;;;;;;34.05;20.10;;;;;;;;;;4974090;28;20070;-62
2021/03/21 06:12:57;;;;;;;29.40;18.77;;;;;;;;;;4974958;28;20065;-64
2021/03/21 06:15:23;;;;;;;;;;;;;;;;;;4996834;28;20121;-65
2021/03/21 06:17:55;;;;;;;31.27;19.85;;;;;;;;;;5036304;28;19967;-65
2021/03/21 06:20:40;;;;;;;31.30;20.05;;;;;;;;;;5035563;28;20033;-64
2021/03/21 06:23:24;;;;;;;29.55;19.23;;;;;;;;;;5035724;28;20405;-66
2021/03/21 06:25:59;;;;;;;30.42;19.90;;;;;;;;;;5035401;28;20080;-62
2021/03/21 06:28:40;;;;;;;32.40;19.48;;;;;;;;;;5035652;28;20555;-62
2021/03/21 06:31:25;;;;;;;28.02;18.38;;;;;;;;;;5035957;28;20025;-64
2021/03/21 06:34:03;;;;;;;31.40;19.35;;;;;;;;;;5036015;28;20025;-64
2021/03/21 06:36:29;;;;;;;31.38;19.58;;;;;;;;;;5036379;28;20372;-63
2021/03/21 06:39:10;;;;;;;29.58;19.35;;;;;;;;;;5035944;28;20036;-62
2021/03/21 06:41:37;;;;;;;29.45;19.13;;;;;;;;;;5035823;28;20535;-62
2021/03/21 06:44:03;;;;;;;29.20;19.65;;;;;;;;;;5035646;28;20065;-61
2021/03/21 06:46:47;;;;;;;30.35;20.35;;;;;;;;;;5035771;28;20032;-62
2021/03/21 06:49:16;;;;;;;29.80;19.48;;;;;;;;;;5034971;28;20049;-65
2021/03/21 06:51:45;;;;;;;26.98;18.17;;;;;;;;;;5035900;28;20022;-62
2021/03/21 06:54:31;;;;;;;31.67;18.75;;;;;;;;;;5035489;28;20032;-63
2021/03/21 06:56:59;;;;;;;32.58;19.90;;;;;;;;;;5034507;28;20135;-63
2021/03/21 06:59:49;;;;;;;31.90;21.02;;;;;;;;;;5034671;28;20108;-63
2021/03/21 07:02:33;;;;;;;34.72;20.10;;;;;;;;;;5034588;28;20029;-62
2021/03/21 07:04:59;;;;;;;41.60;29.75;;;;;;;;;;5034442;28;20032;-63
2021/03/21 07:07:44;;;;;;;44.47;29.38;;;;;;;;;;5033557;28;20108;-62
2021/03/21 07:10:19;;;;;;;41.15;26.23;;;;;;;;;;5033381;28;20133;-63
2021/03/21 07:13:00;;;;;;;34.50;24.70;;;;;;;;;;5034663;28;20557;-62
2021/03/21 07:15:26;;;;;;;43.83;33.35;;;;;;;;;;5032167;28;20029;-63
2021/03/21 07:17:55;;;;;;;38.63;24.65;;;;;;;;;;5034502;28;20032;-62
2021/03/21 07:20:33;;;;;;;46.78;37.67;;;;;;;;;;5034322;28;20030;-62
2021/03/21 07:23:07;;;;;;;37.75;24.50;;;;;;;;;;5034576;28;20068;-62
2021/03/21 07:25:45;;;;;;;45.63;32.05;;;;;;;;;;5034013;28;20025;-62
2021/03/21 07:28:20;;;;;;;38.07;25.10;;;;;;;;;;5034511;28;20040;-62
2021/03/21 07:30:52;;;;;;;43.22;29.35;;;;;;;;;;5034124;28;20024;-62
2021/03/21 07:33:18;;;;;;;42.28;28.45;;;;;;;;;;5034676;28;20037;-62
2021/03/21 07:35:44;;;;;;;36.72;24.30;;;;;;;;;;5034088;28;20025;-63
2021/03/21 07:38:13;;;;;;;44.97;32.65;;;;;;;;;;5034104;28;20423;-63
2021/03/21 07:40:39;;;;;;;;;;;;;;;;;;5034472;28;20033;-62
2021/03/21 07:43:11;;;;;;;37.85;24.13;;;;;;;;;;5034329;28;19959;-62
2021/03/21 07:45:49;;;;;;;40.60;26.77;;;;;;;;;;5034327;28;20088;-64
2021/03/21 07:48:34;;;;;;;39.58;25.30;;;;;;;;;;5034150;28;20044;-63
2021/03/21 07:51:15;;;;;;;37.25;23.58;;;;;;;;;;5034434;28;20018;-63
2021/03/21 07:53:59;;;;;;;34.58;23.35;;;;;;;;;;5035205;28;20415;-63
2021/03/21 07:56:25;;;;;;;38.45;25.38;;;;;;;;;;5034131;28;20065;-63
2021/03/21 07:59:04;;;;;;;37.92;26.08;;;;;;;;;;5034360;28;20069;-63
2021/03/21 08:01:30;;;;;;;42.45;28.02;;;;;;;;;;5034181;28;20021;-62
2021/03/21 08:04:01;;;;;;;37.83;25.05;;;;;;;;;;5033905;28;20030;-62
2021/03/21 08:06:29;;;;;;;37.13;24.50;;;;;;;;;;5034108;28;20025;-62
2021/03/21 08:09:00;;;;;;;49.25;37.17;;;;;;;;;;5033770;28;20116;-61
2021/03/21 08:11:28;;;;;;;44.35;30.58;;;;;;;;;;5033847;28;20404;-62
2021/03/21 08:14:03;;;;;;;43.95;27.88;;;;;;;;;;5033317;28;20036;-62
2021/03/21 08:16:32;;;;;;;42.38;28.33;;;;;;;;;;5033373;28;20499;-62
2021/03/21 08:18:58;;;;;;;47.58;30.05;;;;;;;;;;5032614;28;20089;-59
2021/03/21 08:21:30;;;;;;;41.50;26.80;;;;;;;;;;5033398;28;20052;-61
2021/03/21 08:23:58;;;;;;;39.08;27.23;;;;;;;;;;5033374;28;20100;-60
2021/03/21 08:26:29;;;;;;;52.90;33.08;;;;;;;;;;5033137;28;20039;-60
2021/03/21 08:28:58;;;;;;;44.75;29.50;;;;;;;;;;5033184;28;20033;-61
2021/03/21 08:31:32;;;;;;;42.25;27.13;;;;;;;;;;5032949;28;20083;-61
2021/03/21 08:34:17;;;;;;;41.88;26.92;;;;;;;;;;5032996;28;20025;-60
2021/03/21 08:36:43;;;;;;;43.85;25.50;;;;;;;;;;5033335;28;20033;-61
2021/03/21 08:39:18;;;;;;;40.20;27.13;;;;;;;;;;5032581;28;20022;-61
2021/03/21 08:41:45;;;;;;;36.78;25.08;;;;;;;;;;5032818;28;20033;-61
2021/03/21 08:44:19;;;;;;;39.38;25.85;;;;;;;;;;5032976;28;20053;-60
2021/03/21 08:46:48;;;;;;;38.60;25.75;;;;;;;;;;5032889;28;20029;-61
2021/03/21 08:49:14;;;;;;;42.65;27.20;;;;;;;;;;5032433;28;20120;-60
2021/03/21 08:51:42;;;;;;;43.22;26.67;;;;;;;;;;5032641;28;20029;-62
2021/03/21 08:54:20;;;;;;;42.75;27.20;;;;;;;;;;5033333;28;20403;-62
2021/03/21 08:56:58;;;;;;;45.70;28.58;;;;;;;;;;5033245;28;20030;-61
2021/03/21 08:59:41;;;;;;;49.17;31.55;;;;;;;;;;5033217;28;20033;-61
2021/03/21 09:02:18;;;;;;;53.90;31.85;;;;;;;;;;5033093;28;20491;-61
2021/03/21 09:05:04;;;;;;;57.35;33.53;;;;;;;;;;5032661;28;20052;-61
2021/03/21 09:07:32;;;;;;;53.30;34.22;;;;;;;;;;5032824;28;20022;-61
2021/03/21 09:10:13;;;;;;;55.78;33.25;;;;;;;;;;5032753;28;20083;-61
2021/03/21 09:12:40;;;;;;;63.72;40.53;;;;;;;;;;5031353;28;20037;-61
2021/03/21 09:15:12;;;;;;;77.00;54.47;;;;;;;;;;5033230;28;20520;-61
2021/03/21 09:17:38;;;;;;;64.47;42.08;;;;;;;;;;5033151;28;20029;-60
2021/03/21 09:20:05;;;;;;;60.70;39.30;;;;;;;;;;5032605;28;20029;-61
2021/03/21 09:22:39;;;;;;;67.70;38.13;;;;;;;;;;5032032;28;20036;-60
2021/03/21 09:25:11;;;;;;;61.25;36.38;;;;;;;;;;5032612;28;20372;-61
2021/03/21 09:27:38;;;;;;;63.55;37.40;;;;;;;;;;5032382;28;20033;-61
2021/03/21 09:30:18;;;;;;;62.88;34.30;;;;;;;;;;5033802;28;20037;-60
2021/03/21 09:32:44;;;;;;;56.72;34.08;;;;;;;;;;5036529;28;20029;-60
2021/03/21 09:35:10;;;;;;;58.83;35.08;;;;;;;;;;5036080;28;20022;-60
2021/03/21 09:37:39;;;;;;;64.93;40.88;;;;;;;;;;5036098;28;20375;-60
2021/03/21 09:40:15;;;;;;;62.20;41.63;;;;;;;;;;5035802;28;20068;-60
2021/03/21 09:42:41;;;;;;;89.25;59.42;;;;;;;;;;5036229;28;20116;-61
2021/03/21 09:45:07;;;;;;;65.35;38.28;;;;;;;;;;5036547;28;20040;-60
2021/03/21 09:47:36;;;;;;;58.38;36.28;;;;;;;;;;5035939;28;20037;-62
2021/03/21 09:50:02;;;;;;;;;;;;;;;;;;5036206;28;20096;-62
2021/03/21 09:52:35;;;;;;;186.63;103.90;;;;;;;;;;5036231;28;19909;-60
2021/03/21 09:55:20;;;;;;;164.45;93.20;;;;;;;;;;5035793;28;20021;-61
2021/03/21 09:57:55;;;;;;;73.90;41.65;;;;;;;;;;5035524;28;20032;-60
2021/03/21 10:00:23;;;;;;;52.80;32.17;;;;;;;;;;5035650;28;20034;-62
2021/03/21 10:02:51;;;;;;;56.70;37.20;;;;;;;;;;5036046;28;20018;-61
2021/03/21 10:05:33;;;;;;;68.72;48.25;;;;;;;;;;5017865;28;20080;-62
2021/03/21 10:08:11;;;;;;;58.33;36.13;;;;;;;;;;5033700;28;20463;-62
2021/03/21 10:10:37;;;;;;;76.82;48.55;;;;;;;;;;5021975;28;20061;-62
2021/03/21 10:13:03;;;;;;;70.80;45.22;;;;;;;;;;5035612;28;20452;-62
2021/03/21 10:15:29;;;;;;;77.78;52.08;;;;;;;;;;5036155;28;20087;-62
2021/03/21 10:18:00;;;;;;;65.65;43.25;;;;;;;;;;5036400;28;20021;-62
2021/03/21 10:20:44;;;;;;;62.42;42.67;;;;;;;;;;5036067;28;20109;-62
2021/03/21 10:23:11;;;;;;;58.45;37.63;;;;;;;;;;5036118;28;20053;-61
2021/03/21 10:25:39;;;;;;;69.50;44.88;;;;;;;;;;5036021;28;20038;-61
2021/03/21 10:28:05;;;;;;;;;;;;;;;;;;5036584;28;20084;-62
2021/03/21 10:30:33;;;;;;;55.75;33.17;;;;;;;;;;5035820;28;20367;-62
2021/03/21 10:33:00;;;;;;;55.83;36.30;;;;;;;;;;5034366;28;20057;-63
2021/03/21 10:35:29;;;;;;;67.97;44.25;;;;;;;;;;5035816;28;20380;-62
2021/03/21 10:37:57;;;;;;;;;;;;;;;;;;5034839;28;20074;-63
2021/03/21 10:40:26;;;;;;;65.18;35.20;;;;;;;;;;5035743;28;19920;-63
2021/03/21 10:42:52;;;;;;;;;;;;;;;;;;5034980;28;20041;-63
2021/03/21 10:45:36;;;;;;;54.97;34.03;;;;;;;;;;5033719;28;19905;-63
2021/03/21 10:48:22;;;;;;;56.72;38.67;;;;;;;;;;5035070;28;20026;-63
2021/03/21 10:50:57;;;;;;;54.28;33.35;;;;;;;;;;5033194;28;20033;-63
2021/03/21 10:53:31;;;;;;;133.43;90.57;;;;;;;;;;5035118;28;20029;-63
2021/03/21 10:56:00;;;;;;;76.47;50.33;;;;;;;;;;5034852;28;20100;-63
2021/03/21 10:58:29;;;;;;;60.15;35.58;;;;;;;;;;5034894;28;20053;-63
2021/03/21 11:01:22;;;;;;;54.90;34.67;;;;;;;;;;5034295;28;20025;-64
2021/03/21 11:03:48;;;;;;;57.53;36.03;;;;;;;;;;5025966;28;20462;-65
2021/03/21 11:06:19;;;;;;;55.70;34.33;;;;;;;;;;5033872;28;20064;-66
2021/03/21 11:08:45;;;;;;;57.70;34.40;;;;;;;;;;5033840;28;20131;-62
2021/03/21 11:11:25;;;;;;;59.63;39.30;;;;;;;;;;5033612;28;20091;-64
2021/03/21 11:13:51;;;;;;;58.42;36.28;;;;;;;;;;5017406;28;20040;-64
2021/03/21 11:16:23;;;;;;;59.38;34.60;;;;;;;;;;5030246;28;20029;-62
2021/03/21 11:18:50;;;;;;;54.90;35.03;;;;;;;;;;5027324;28;20025;-63
2021/03/21 11:21:19;;;;;;;58.20;33.80;;;;;;;;;;5032509;28;20391;-62
2021/03/21 11:23:53;;;;;;;63.63;38.80;;;;;;;;;;5034552;28;20043;-66
2021/03/21 11:26:25;;;;;;;61.53;37.08;;;;;;;;;;5032969;28;20494;-65
2021/03/21 11:28:53;;;;;;;60.85;35.60;;;;;;;;;;5035251;28;20057;-67
2021/03/21 11:31:33;;;;;;;58.63;35.33;;;;;;;;;;5034965;28;20029;-63
2021/03/21 11:34:14;;;;;;;57.05;37.03;;;;;;;;;;5032420;28;20025;-66
2021/03/21 11:36:40;;;;;;;53.72;33.80;;;;;;;;;;5030185;28;20029;-64
2021/03/21 11:39:35;;;;;;;49.30;31.17;;;;;;;;;;5033920;28;20034;-64
2021/03/21 11:42:02;;;;;;;48.38;31.80;;;;;;;;;;5022798;28;20384;-61
2021/03/21 11:44:30;;;;;;;48.95;32.30;;;;;;;;;;5033758;28;20025;-62
2021/03/21 11:47:14;;;;;;;50.67;34.67;;;205.70;2022.40;;;;;;5034024;28;20033;-61
2021/03/21 11:49:41;;;;;;;52.42;33.92;;;205.70;2022.40;;;;;;5031906;28;20032;-61
2021/03/21 11:52:08;;;;;;;51.13;33.20;;;230.50;1996.80;;;;;;5033302;28;20021;-61
2021/03/21 11:54:36;;;;;;;62.42;44.45;;;205.60;2048.00;;;;;;5033159;28;20510;-62
2021/03/21 11:57:12;;;;;;;71.90;57.65;;;205.60;2073.60;;;;;;5032239;28;20020;-62
2021/03/21 12:00:03;;;;;;;59.35;38.65;;;205.20;2073.60;;;;;;5033214;28;20034;-62
2021/03/21 12:02:47;;;;;;;50.33;33.78;;;205.40;2099.20;;;;;;5031063;28;20029;-62
2021/03/21 12:05:25;;;;;;;79.20;58.42;;;205.40;2073.60;;;;;;5022061;28;20476;-61
2021/03/21 12:07:51;;;;;;;66.57;45.20;;;205.00;2124.80;;;;;;5033497;28;20072;-61
2021/03/21 12:10:38;;;;;;;62.55;43.97;;;204.80;2150.40;;;;;;5031947;28;20128;-63
2021/03/21 12:13:24;;;;;;;68.35;48.05;;;180.10;2176.00;;;;;;5033214;28;20021;-62
2021/03/21 12:15:51;;;;;;;58.72;37.80;;;180.00;2252.80;;;;;;5032331;28;20064;-63
2021/03/21 12:18:18;;;;;;;59.38;41.50;;;180.10;2227.20;;;;;;5031975;28;20033;-61
2021/03/21 12:20:47;;;;;;;69.63;46.85;;;180.10;2227.20;;;;;;5033358;28;20025;-62
2021/03/21 12:23:49;;;;;;;53.70;37.58;;;180.10;2252.80;;;;;;5034246;28;20037;-61
2021/03/21 12:26:18;;;;;;;53.45;35.30;;;180.00;2252.80;;;;;;5030352;28;20529;-64
2021/03/21 12:29:05;;;;;;;55.45;36.33;;;179.90;2252.80;;;;;;5033373;28;20576;-61
2021/03/21 12:31:38;;;;;;;54.15;39.78;;;180.00;2252.80;;;;;;5033142;28;20014;-59
2021/03/21 12:34:22;;;;;;;50.47;31.70;;;179.60;2252.80;;;;;;5033383;28;20029;-62
2021/03/21 12:37:00;;;;;;;43.63;30.38;;;180.00;2252.80;;;;;;5033164;28;20467;-62
2021/03/21 12:39:31;;;;;;;56.87;36.67;;;204.90;2176.00;;;;;;5032629;28;20039;-60
2021/03/21 12:41:59;;;;;;;59.28;39.03;;;204.90;2176.00;;;;;;5032832;28;20021;-65
2021/03/21 12:44:26;;;;;;;56.80;35.95;;;204.90;2252.80;;;;;;5033489;28;20061;-58
2021/03/21 12:47:18;;;;;;;53.67;34.20;;;205.00;2252.80;;;;;;5033455;28;20025;-61
2021/03/21 12:49:51;;;;;;;51.15;34.45;;;205.10;2227.20;;;;;;4974522;28;20046;-60
2021/03/21 12:52:22;;;;;;;57.75;36.50;;;204.90;2252.80;;;;;;4973134;28;20043;-61
2021/03/21 12:54:49;;;;;;;51.28;33.30;;;204.90;2252.80;;;;;;4973921;28;20035;-60
2021/03/21 12:57:15;;;;;;;190.43;152.02;;;204.80;2227.20;;;;;;4957835;28;20068;-61
2021/03/21 12:59:47;;;;;;;58.45;41.22;;;180.10;2227.20;;;;;;4966031;28;20031;-60
2021/03/21 13:02:21;;;;;;;70.95;49.80;;;180.00;2252.80;;;;;;4971050;28;20035;-60
2021/03/21 13:04:47;;;;;;;82.75;67.97;;;179.80;2252.80;;;;;;4964943;28;20027;-58
2021/03/21 13:07:14;;;;;;;52.90;37.80;;;179.90;2252.80;;;;;;4975455;28;20150;-61
2021/03/21 13:09:43;;;;;;;53.20;36.33;;;179.90;2252.80;;;;;;4972820;28;20126;-58
2021/03/21 13:12:10;;;;;;;48.33;31.45;;;179.70;2252.80;;;;;;4974328;28;20118;-59
2021/03/21 13:14:36;;;;;;;46.83;33.22;;;179.60;2252.80;;;;;;4975874;28;20027;-62
2021/03/21 13:17:02;;;;;;;57.65;37.38;;;179.70;2252.80;;;;;;4974715;28;20053;-63
2021/03/21 13:19:28;;;;;;;47.83;30.85;;;179.70;2252.80;;;;;;4972863;28;20031;-62
2021/03/21 13:21:53;;;;;;;49.72;32.40;;;179.80;2252.80;;;;;;4971785;28;20027;-60
2021/03/21 13:24:19;;;;;;;57.42;38.00;;;180.00;2227.20;;;;;;4970783;28;20065;-63
2021/03/21 13:26:45;;;;;;;58.97;37.40;;;180.00;2252.80;;;;;;5000782;28;20040;-62
2021/03/21 13:29:11;;;;;;;48.60;32.72;;;180.00;2252.80;;;;;;5030845;28;20041;-62
2021/03/21 13:31:37;;;;;;;234.75;160.80;;;179.90;2252.80;;;;;;5013527;28;20073;-61
2021/03/21 13:34:03;;;;;;;87.50;62.17;;;179.80;2252.80;;;;;;5029130;28;20128;-60
2021/03/21 13:36:29;;;;;;;62.25;42.22;;;179.90;2252.80;;;;;;5030591;28;20557;-60
2021/03/21 13:38:55;;;;;;;58.50;39.50;;;179.70;2252.80;;;;;;5029761;28;20017;-60
2021/03/21 13:41:20;;;;;;;80.55;60.55;;;179.60;2252.80;;;;;;5031621;28;20384;-60
2021/03/21 13:43:49;;;;;;;64.75;44.25;;;179.40;2252.80;;;;;;5027880;28;20041;-61
2021/03/21 13:46:14;;;;;;;67.60;50.47;;;179.30;2252.80;;;;;;5012765;28;20121;-61
2021/03/21 13:48:42;;;;;;;77.70;59.05;;;179.20;2252.80;;;;;;5030247;28;20172;-60
2021/03/21 13:51:09;;;;;;;57.20;38.43;;;154.40;2252.80;;;;;;5029105;28;20037;-60
2021/03/21 13:53:37;;;;;;;64.68;43.40;;;154.40;2252.80;;;;;;5012701;28;20036;-60
2021/03/21 13:56:06;;;;;;;57.00;33.90;;;154.40;2252.80;;;;;;5012933;28;20013;-61
2021/03/21 13:58:32;;;;;;;66.82;44.50;;;153.80;2252.80;;;;;;5030279;28;20619;-62
2021/03/21 14:00:57;;;;;;;64.15;39.90;;;153.80;2252.80;;;;;;5012650;28;20070;-61
2021/03/21 14:03:24;;;;;;;57.58;37.35;;;154.10;2252.80;;;;;;5031273;28;20084;-61
2021/03/21 14:05:51;;;;;;;66.35;44.25;;;154.20;2252.80;;;;;;5028949;28;20424;-62
2021/03/21 14:08:21;;;;;;;57.30;34.40;;;154.40;2252.80;;;;;;5031095;28;20037;-63
2021/03/21 14:10:47;;;;;;;55.83;33.22;;;154.30;2252.80;;;;;;5024755;28;20084;-61
2021/03/21 14:13:14;;;;;;;57.63;37.15;;;154.20;2252.80;;;;;;5031659;28;20034;-63
2021/03/21 14:15:42;;;;;;;56.60;34.83;;;154.30;2252.80;;;;;;5031779;28;20060;-61